createdAt,value
2023-01-22T07:55:23.637Z,15.50
2023-01-22T07:58:34.036Z,15.60
2023-01-22T08:01:43.614Z,15.00
2023-01-22T08:04:49.879Z,16.60
2023-01-22T08:08:11.728Z,16.80
2023-01-22T08:11:48.683Z,15.50
2023-01-22T08:15:15.028Z,17.30
2023-01-22T08:18:31.868Z,15.80
2023-01-22T08:21:46.267Z,17.00
2023-01-22T08:24:56.895Z,19.00
2023-01-22T08:28:14.714Z,18.20
2023-01-22T08:34:34.992Z,18.40
2023-01-22T08:37:45.664Z,19.40
2023-01-22T08:41:19.848Z,19.40
2023-01-22T08:44:29.005Z,21.90
2023-01-22T08:47:39.019Z,17.40
2023-01-22T08:50:45.383Z,18.60
2023-01-22T08:54:29.428Z,18.40
2023-01-22T08:57:49.933Z,18.00
2023-01-22T09:00:56.858Z,18.10
2023-01-22T09:04:02.087Z,18.50
2023-01-22T09:07:13.528Z,18.70
2023-01-22T09:10:29.836Z,19.60
2023-01-22T09:13:38.572Z,18.20
2023-01-22T09:16:46.063Z,16.40
2023-01-22T09:19:51.942Z,15.70
2023-01-22T09:23:03.045Z,17.90
2023-01-22T09:26:13.963Z,18.10
2023-01-22T09:29:27.278Z,17.80
2023-01-22T09:32:33.133Z,18.00
2023-01-22T09:36:25.887Z,17.60
2023-01-22T09:39:33.355Z,16.20
2023-01-22T09:42:42.309Z,17.30
2023-01-22T14:11:18.090Z,15.10
2023-01-22T14:19:56.038Z,12.50
2023-01-22T14:23:09.124Z,12.10
2023-01-22T14:31:00.231Z,11.40
2023-01-22T14:42:10.229Z,12.40
2023-01-22T14:45:38.631Z,13.20
2023-01-22T14:49:05.763Z,14.10
2023-01-22T14:52:20.789Z,13.40
2023-01-22T14:55:58.710Z,13.40
2023-01-22T14:59:12.096Z,12.00
2023-01-22T15:02:24.919Z,14.80
2023-01-22T15:09:46.158Z,14.40
2023-01-22T15:13:06.268Z,14.50
2023-01-22T15:20:50.020Z,15.10
2023-01-22T15:36:38.146Z,18.00
2023-01-22T15:40:07.251Z,16.00
2023-01-22T15:43:22.655Z,16.70
2023-01-22T15:46:51.368Z,16.10
2023-01-22T15:57:43.884Z,13.20
2023-01-22T18:00:00.463Z,16.80
